Portada
METAR-TAF:

METAR-TAF

Aeroports :

Pointe-Noire, Congo

latitud: 04-49S, longitud: 011-54E, altitud: 17 m

Observació

L'informe es va fer fa 51 minuts, a les 22:00 UTC
Vent 6 kt del Sud
Temperatura 23°C
Humitat 89%
Pressió 1015 hPa
Visibilitat: 8000 m
Escasses núvols a una alçada de 800 ft
Cel ennuvolat a una alçada de 2000 ft

METAR: FCPP 152200Z 18006KT 8000 FEW008 BKN020 23/21 Q1015 NOSIG

Hora: 23:51 (22:51 UTC)

Pronòstic

L'informe es va fer fa 5 hores i 51 minuts, a les 17:00 UTC
Pronòstic vàlid del 15 a les 18 UTC al 16 a les 18 UTC
Vent 10 kt del Sud/Sud-Oest
Visibilitat: 7000 m
Núvols disperses a una alçada de 1000 ft
Cel cobert a una alçada de 2300 ft
A partir de les 16 a les 0400 UTC
Vent kt del Nord
Visibilitat: 3000 m
Núvols disperses a una alçada de 1000 ft
Cel ennuvolat a una alçada de 2300 ft
boirina

TAF: FCPP 151700Z 1518/1618 20010KT 7000 SCT010 OVC023 FM160400 00000KT 3000 BR SCT010 BKN023

Observacions i pronòstics meteorològics de més de 4000 aeroports (METAR i TAF).

Les estacions disponibles són els punts grocs i vermells al mapa.

Posi el ratolí al punt desitjat per veure el nom de l'estació.

Feu clic per veure les observacions i els pronòstics meteorològics.

Per canviar el mapa: feu clic els botons verds amb una creu de color negre per apropar; al botó verd amb un guió per allunyar la imatge; o en les fletxes verdes per a mapes adjacents.


METAR-TAF: